MKJP/KIN METAR and TAF weather

Enter ICAO airport designator
Station Type Date Time Source
MKJP METAR 2019/06/19 01:00 UTC NOAA

MKJP 190100Z 15020KT 9999 FEW024 29/22 Q1014


Station Type Date Time Source
MKJP Decoded METAR 2019/06/19 01:00 UTC NOAA

Kingston / Norman Manley, Jamaica (MKJP) 17-56N 076-47W 14M
Jun 18, 2019 - 09:00 PM EDT / 2019.06.19 0100 UTC
Wind: from the SSE (150 degrees) at 23 MPH (20 KT):0
Visibility: greater than 7 mile(s):0
Sky conditions: mostly clear
Temperature: 84 F (29 C)
Dew Point: 71 F (22 C)
Relative Humidity: 65%
Pressure (altimeter): 29.94 in. Hg (1014 hPa)
ob: MKJP 190100Z 15020KT 9999 FEW024 29/22 Q1014
cycle: 1

Station Type Date Time Source
MKJP TAF 2019/06/18 18:24 UTC NOAA

TAF MKJP 181715Z 1818/1918 13025G35KT 9999 FEW024
BECMG 1902/1904 15015KT FEW022
BECMG 1913/1915 13026G36KT

Example: see airport list